Time;durP1;ratioP1;P1;durP2;ratioP2;P2;SDS_P1;SDS_P2;PMS_P1;PMS_P2;Temp;Humidity;BMP_temperature;BMP_pressure;BME280_temperature;BME280_humidity;BME280_pressure;Samples;Min_cycle;Max_cycle;Signal;HPM_P1;HPM_P2
2023/02/18 00:00:10;;;;;;;85.28;56.75;;;;;;;6.84;49.68;100277.38;4992158;28;20022;-80
2023/02/18 00:02:36;;;;;;;85.78;56.50;;;;;;;7.35;50.28;100344.59;4992050;28;20049;-80
2023/02/18 00:05:02;;;;;;;83.32;56.58;;;;;;;7.34;50.64;100346.38;4990601;28;20527;-80
2023/02/18 00:07:27;;;;;;;88.55;55.20;;;;;;;7.05;50.29;100332.41;4991809;28;20034;-80
2023/02/18 00:09:53;;;;;;;90.90;57.65;;;;;;;7.18;49.86;100335.59;4990469;28;20029;-80
2023/02/18 00:12:18;;;;;;;84.90;58.17;;;;;;;6.90;50.26;100286.50;4991856;28;20076;-80
2023/02/18 00:14:44;;;;;;;85.95;58.65;;;;;;;6.69;50.30;100269.06;4991819;28;20451;-80
2023/02/18 00:17:09;;;;;;;87.30;55.97;;;;;;;6.47;50.39;100227.31;4991666;28;20026;-80
2023/02/18 00:19:34;;;;;;;88.95;58.47;;;;;;;7.07;50.32;100306.84;4991755;28;20092;-80
2023/02/18 00:22:00;;;;;;;86.40;54.75;;;;;;;6.65;50.28;100245.84;4991720;28;20058;-80
2023/02/18 00:24:25;;;;;;;84.28;57.78;;;;;;;6.59;50.33;100228.00;4990532;28;20026;-80
2023/02/18 00:26:51;;;;;;;85.32;54.90;;;;;;;7.25;50.33;100339.34;4992275;28;20045;-80
2023/02/18 00:29:17;;;;;;;82.75;54.85;;;;;;;6.59;50.54;100239.34;4991931;28;20029;-80
2023/02/18 00:31:43;;;;;;;79.43;54.30;;;;;;;6.49;50.70;100272.59;4990301;28;20113;-80
2023/02/18 00:34:09;;;;;;;75.60;53.60;;;;;;;7.14;50.76;100347.34;4991707;28;20026;-80
2023/02/18 00:36:35;;;;;;;82.35;53.85;;;;;;;6.28;50.82;100188.75;4991870;28;20035;-80
2023/02/18 00:39:03;;;;;;;79.22;52.75;;;;;;;6.78;51.15;100292.84;4991719;28;20034;-80
2023/02/18 00:41:30;;;;;;;77.72;51.17;;;;;;;6.21;51.25;100185.00;4991638;28;20501;-80
2023/02/18 00:43:55;;;;;;;76.07;52.38;;;;;;;6.68;51.31;100256.88;4991480;28;20782;-80
2023/02/18 00:46:21;;;;;;;78.43;51.10;;;;;;;7.08;51.22;100321.63;4991431;28;20034;-80
2023/02/18 00:48:47;;;;;;;75.15;51.55;;;;;;;6.70;51.58;100264.66;4991488;28;20056;-80
2023/02/18 00:51:12;;;;;;;69.93;47.45;;;;;;;6.83;51.60;100267.84;4991559;28;20046;-80
2023/02/18 00:53:38;;;;;;;64.47;47.20;;;;;;;6.16;51.44;100160.16;4991454;28;20054;-80
2023/02/18 00:56:04;;;;;;;68.47;48.53;;;;;;;6.21;51.92;100181.56;4991678;28;20061;-80
2023/02/18 00:58:30;;;;;;;66.72;48.15;;;;;;;6.73;52.12;100256.50;4991515;28;20034;-80
2023/02/18 01:00:56;;;;;;;73.53;49.88;;;;;;;6.43;52.26;100202.31;4991611;28;20027;-79
2023/02/18 01:03:22;;;;;;;72.10;49.75;;;;;;;6.34;52.19;100192.63;4994210;28;20054;-81
2023/02/18 01:05:49;;;;;;;68.53;46.80;;;;;;;6.97;51.99;100279.75;4993728;28;20034;-80
2023/02/18 01:08:15;;;;;;;63.78;46.90;;;;;;;6.91;52.31;100275.88;4993646;28;20031;-81
2023/02/18 01:10:43;;;;;;;72.95;50.65;;;;;;;6.97;52.48;100277.13;4993656;28;20084;-80
2023/02/18 01:13:10;;;;;;;74.30;50.92;;;;;;;6.92;52.58;100269.66;4995096;28;20022;-80
2023/02/18 01:15:37;;;;;;;70.70;49.60;;;;;;;6.78;52.31;100254.31;4995039;28;20026;-80
2023/02/18 01:18:02;;;;;;;67.07;46.97;;;;;;;6.36;52.46;100169.72;4994730;28;20081;-80
2023/02/18 01:20:28;;;;;;;67.13;47.15;;;;;;;6.11;52.12;100128.28;4993554;28;20419;-80
2023/02/18 01:22:53;;;;;;;72.88;44.60;;;;;;;5.97;52.53;100101.47;4994684;28;20050;-79
2023/02/18 01:25:18;;;;;;;67.05;46.85;;;;;;;5.43;52.92;100065.13;4994839;28;20058;-80
2023/02/18 01:27:44;;;;;;;66.20;45.45;;;;;;;6.56;52.97;100200.25;4994754;28;20381;-81
2023/02/18 01:30:13;;;;;;;78.00;51.25;;;;;;;6.79;52.50;100234.16;4994417;28;20038;-81
2023/02/18 01:32:39;;;;;;;71.72;49.85;;;;;;;6.51;52.29;100194.59;4994402;28;20030;-80
2023/02/18 01:35:05;;;;;;;73.60;49.42;;;;;;;6.67;52.42;100215.88;4994601;28;20030;-80
2023/02/18 01:37:31;;;;;;;74.57;49.08;;;;;;;6.38;52.39;100171.25;4994452;28;20030;-80
2023/02/18 01:39:56;;;;;;;74.25;50.53;;;;;;;6.00;52.05;100095.13;4994429;28;20026;-80
2023/02/18 01:42:26;;;;;;;77.88;56.17;;;;;;;6.37;52.53;100164.34;4994391;28;20026;-80
2023/02/18 01:44:52;;;;;;;76.88;51.90;;;;;;;6.24;52.16;100140.16;4994390;28;20026;-81
2023/02/18 01:47:19;;;;;;;74.80;52.70;;;;;;;6.07;51.99;100109.38;4994239;28;20033;-79
2023/02/18 01:49:50;;;;;;;83.18;55.25;;;;;;;6.20;51.76;100143.19;4992964;28;20411;-80
2023/02/18 01:52:25;;;;;;;81.88;55.38;;;;;;;6.45;51.68;100175.94;4994117;28;20022;-79
2023/02/18 01:54:56;;;;;;;78.55;53.88;;;;;;;5.09;51.97;99949.41;4994160;28;20041;-79
2023/02/18 01:57:33;;;;;;;77.97;54.78;;;;;;;6.65;52.25;100207.31;4994037;28;20026;-80
2023/02/18 02:00:07;;;;;;;77.93;52.58;;;;;;;6.66;51.93;100208.13;4993988;28;20514;-81
2023/02/18 02:02:36;;;;;;;71.68;51.22;;;;;;;6.68;51.74;100219.31;4992686;28;20115;-81
2023/02/18 02:05:02;;;;;;;77.20;51.95;;;;;;;6.30;52.48;100170.25;4992764;28;20392;-79
2023/02/18 02:07:28;;;;;;;72.28;54.67;;;;;;;5.07;52.11;99962.63;4993804;28;20037;-80
2023/02/18 02:09:56;;;;;;;76.78;49.15;;;;;;;6.57;52.63;100209.78;4993822;28;20030;-80
2023/02/18 02:12:43;;;;;;;63.63;43.15;;;;;;;6.51;53.24;100207.69;4993751;28;20094;-80
2023/02/18 02:15:27;;;;;;;68.85;48.10;;;;;;;6.56;52.67;100213.38;4992839;28;20103;-80
2023/02/18 02:17:55;;;;;;;67.07;47.42;;;;;;;6.57;52.93;100208.94;4993840;28;20034;-80
2023/02/18 02:20:46;;;;;;;67.05;46.08;;;;;;;6.57;52.62;100209.78;4992444;28;20487;-80
2023/02/18 02:23:38;;;;;;;64.55;44.05;;;;;;;6.53;52.77;100213.66;4992332;28;20061;-80
2023/02/18 02:26:25;;;;;;;61.08;43.03;;;;;;;6.52;53.44;100208.53;4989162;28;20045;-80
2023/02/18 02:29:19;;;;;;;66.35;43.47;;;;;;;6.26;53.38;100177.56;4993325;28;20085;-80
2023/02/18 02:31:59;;;;;;;72.90;46.90;;;;;;;6.38;53.52;100191.38;4993578;28;20030;-80
2023/02/18 02:34:47;;;;;;;74.78;46.88;;;;;;;5.79;52.76;100084.69;4993576;28;20034;-80
2023/02/18 02:37:24;;;;;;;66.20;45.10;;;;;;;5.74;53.10;100087.72;4996820;28;20104;-82
2023/02/18 02:40:06;;;;;;;74.90;49.60;;;;;;;5.97;52.98;100127.69;4999064;28;20026;-80
2023/02/18 02:42:53;;;;;;;74.15;48.42;;;;;;;6.42;53.65;100203.28;4992049;28;20038;-80
2023/02/18 02:45:53;;;;;;;53.42;38.75;;;;;;;6.30;53.43;100184.19;4993237;28;20033;-80
2023/02/18 02:48:58;;;;;;;62.00;39.60;;;;;;;6.15;53.37;100166.38;4979869;28;20120;-80
2023/02/18 02:51:36;;;;;;;60.20;42.00;;;;;;;5.66;53.21;100089.34;4987612;28;20423;-80
2023/02/18 02:54:20;;;;;;;62.47;42.90;;;;;;;6.42;53.32;100210.31;4992033;28;20037;-80
2023/02/18 02:56:46;;;;;;;63.30;42.30;;;;;;;6.21;52.69;100194.66;4993067;28;20033;-81
2023/02/18 02:59:17;;;;;;;69.68;44.83;;;;;;;6.44;52.78;100221.50;4991697;28;20035;-80
2023/02/18 03:02:10;;;;;;;70.80;45.87;;;;;;;6.00;53.10;100158.03;4992952;28;20030;-80
2023/02/18 03:04:54;;;;;;;66.60;44.78;;;;;;;6.35;53.15;100225.75;4992964;28;20297;-80
2023/02/18 03:07:47;;;;;;;70.20;46.40;;;;;;;6.32;52.95;100218.97;4992595;28;20037;-80
2023/02/18 03:10:25;;;;;;;59.17;41.22;;;;;;;6.27;52.98;100222.97;4992857;28;20040;-81
2023/02/18 03:13:17;;;;;;;51.85;35.55;;;;;;;6.24;53.17;100226.69;4992792;28;20053;-80
2023/02/18 03:15:55;;;;;;;48.20;34.25;;;;;;;5.87;53.07;100176.56;4992685;28;20423;-80
2023/02/18 03:18:39;;;;;;;45.40;32.35;;;;;;;6.00;53.51;100186.88;4991552;28;20038;-80
2023/02/18 03:21:25;;;;;;;43.63;28.90;;;;;;;6.25;53.30;100225.72;4992316;28;20461;-80
2023/02/18 03:24:00;;;;;;;46.08;30.42;;;;;;;6.23;52.48;100222.41;4992713;28;20097;-80
2023/02/18 03:26:28;;;;;;;39.90;28.25;;;;;;;5.69;52.57;100120.50;4990986;28;20037;-80
2023/02/18 03:28:55;;;;;;;41.03;28.67;;;;;;;5.30;52.51;100054.06;4992294;28;20073;-80
2023/02/18 03:31:25;;;;;;;35.67;27.20;;;;;;;5.96;52.69;100209.91;4990867;28;20031;-80
2023/02/18 03:34:18;;;;;;;38.20;26.23;;;;;;;5.42;52.61;100080.03;4992310;28;20038;-80
2023/02/18 03:36:44;;;;;;;37.30;25.17;;;;;;;5.75;52.72;100144.38;4990990;28;20068;-80
2023/02/18 03:39:14;;;;;;;32.53;24.27;;;;;;;6.15;52.69;100211.75;4990969;28;20480;-80
2023/02/18 03:41:40;;;;;;;38.95;26.92;;;;;;;5.49;52.38;100088.19;4992393;28;20018;-80
2023/02/18 03:44:07;;;;;;;36.50;27.23;;;;;;;4.99;52.34;100013.97;4992515;28;20092;-80
2023/02/18 03:46:35;;;;;;;41.17;29.55;;;;;;;5.93;52.99;100177.84;4992231;28;20411;-80
2023/02/18 03:49:01;;;;;;;42.80;30.70;;;;;;;6.17;52.74;100201.13;4992158;28;20108;-80
2023/02/18 03:51:27;;;;;;;45.10;32.40;;;;;;;6.17;52.68;100206.38;4991971;28;20034;-80
2023/02/18 03:53:53;;;;;;;44.50;29.55;;;;;;;5.86;52.38;100150.50;4992081;28;20026;-80
2023/02/18 03:56:19;;;;;;;41.42;29.38;;;;;;;6.10;52.87;100207.88;4992195;28;20062;-80
2023/02/18 03:58:45;;;;;;;40.47;27.92;;;;;;;5.30;52.49;100075.00;4991993;28;20484;-80
2023/02/18 04:01:10;;;;;;;37.33;28.27;;;;;;;5.28;52.81;100077.75;4990683;28;20018;-80
2023/02/18 04:03:36;;;;;;;36.25;26.85;;;;;;;5.57;52.60;100138.13;4991873;28;20032;-80
2023/02/18 04:06:01;;;;;;;35.28;26.85;;;;;;;6.00;52.54;100234.06;4990771;28;20404;-80
2023/02/18 04:08:27;;;;;;;38.03;26.10;;;;;;;5.61;52.64;100157.00;4990781;28;20049;-80
2023/02/18 04:10:52;;;;;;;36.60;25.63;;;;;;;5.02;52.51;100060.81;4990628;28;20093;-80
2023/02/18 04:13:18;;;;;;;33.20;24.42;;;;;;;5.00;53.05;100071.41;4991835;28;20101;-80
2023/02/18 04:15:44;;;;;;;37.53;26.60;;;;;;;5.48;52.79;100141.53;4991865;28;20426;-80
2023/02/18 04:18:10;;;;;;;36.20;26.90;;;;;;;5.30;52.93;100115.13;4991846;28;20030;-80
2023/02/18 04:20:36;;;;;;;39.07;27.33;;;;;;;5.38;52.67;100148.50;4991842;28;20550;-80
2023/02/18 04:23:02;;;;;;;40.73;27.33;;;;;;;6.02;52.52;100243.44;4991601;28;20081;-80
2023/02/18 04:25:28;;;;;;;40.23;28.07;;;;;;;5.82;52.59;100212.81;4991870;28;20133;-80
2023/02/18 04:27:53;;;;;;;45.83;30.20;;;;;;;5.13;52.84;100086.88;4991710;28;20543;-80
2023/02/18 04:30:19;;;;;;;46.30;31.70;;;;;;;5.64;52.71;100196.06;4991506;28;20030;-80
2023/02/18 04:32:44;;;;;;;56.28;33.65;;;;;;;5.46;52.69;100164.41;4991567;28;20030;-80
2023/02/18 04:35:10;;;;;;;49.72;34.17;;;;;;;5.18;53.05;100129.22;4991655;28;20112;-80
2023/02/18 04:37:35;;;;;;;49.77;34.37;;;;;;;5.38;52.74;100149.34;4993512;28;20497;-80
2023/02/18 04:40:00;;;;;;;47.67;31.80;;;;;;;5.31;52.75;100137.72;4995537;28;20025;-80
2023/02/18 04:42:26;;;;;;;46.67;32.33;;;;;;;5.68;52.54;100197.44;4994475;28;20112;-80
2023/02/18 04:44:51;;;;;;;41.93;30.03;;;;;;;5.63;52.59;100186.53;4995578;28;20526;-80
2023/02/18 04:47:17;;;;;;;44.03;29.23;;;;;;;5.51;52.74;100174.47;4994375;28;20072;-80
2023/02/18 04:49:42;;;;;;;42.77;31.90;;;;;;;5.86;53.26;100244.84;4995584;28;20491;-80
2023/02/18 04:52:07;;;;;;;42.50;31.30;;;;;;;5.33;53.03;100158.53;4993833;28;20431;-80
2023/02/18 04:54:33;;;;;;;45.90;32.60;;;;;;;5.46;52.91;100169.63;4995140;28;20041;-80
2023/02/18 04:56:58;;;;;;;43.65;31.92;;;;;;;5.42;53.10;100166.44;4995002;28;20030;-80
2023/02/18 04:59:24;;;;;;;46.33;32.00;;;;;;;5.29;52.65;100133.56;4994953;28;20030;-79
2023/02/18 05:01:49;;;;;;;43.17;30.98;;;;;;;5.15;53.00;100118.16;4995131;28;20496;-80
2023/02/18 05:04:16;;;;;;;50.33;33.83;;;;;;;5.90;53.12;100248.88;4993814;28;20027;-80
2023/02/18 05:06:42;;;;;;;49.60;33.80;;;;;;;5.32;53.42;100154.25;4993905;28;20026;-80
2023/02/18 05:09:08;;;;;;;44.83;32.10;;;;;;;5.09;53.15;100122.13;4995135;28;20015;-80
2023/02/18 05:11:33;;;;;;;55.97;41.77;;;;;;;5.50;53.17;100199.00;4993504;28;20026;-80
2023/02/18 05:13:58;;;;;;;54.10;36.83;;;;;;;5.28;52.81;100172.00;4994655;28;20049;-80
2023/02/18 05:16:24;;;;;;;51.55;38.13;;;;;;;5.42;53.40;100191.81;4994786;28;20089;-80
2023/02/18 05:18:49;;;;;;;52.70;39.97;;;;;;;5.56;53.30;100190.63;4993578;28;20030;-80
2023/02/18 05:21:15;;;;;;;50.63;37.10;;;;;;;5.39;52.76;100171.94;4994533;28;20026;-80
2023/02/18 05:23:40;;;;;;;48.80;38.10;;;;;;;5.48;52.89;100175.56;4994620;28;20034;-80
2023/02/18 05:26:05;;;;;;;49.17;35.20;;;;;;;5.34;53.35;100161.03;4994799;28;20052;-80
2023/02/18 05:28:31;;;;;;;58.63;41.70;;;;;;;5.04;52.74;100111.22;4993454;28;20027;-80
2023/02/18 05:30:57;;;;;;;58.93;40.10;;;;;;;4.50;52.94;100025.94;4994550;28;20030;-80
2023/02/18 05:33:22;;;;;;;55.90;42.30;;;;;;;5.44;53.11;100189.88;4994572;28;20027;-80
2023/02/18 05:35:48;;;;;;;60.37;44.67;;;;;;;5.85;53.02;100267.59;4994537;28;20041;-80
2023/02/18 05:38:13;;;;;;;61.77;45.33;;;;;;;5.30;53.04;100156.16;4994706;28;20114;-80
2023/02/18 05:40:39;;;;;;;71.93;53.70;;;;;;;5.51;52.99;100201.50;4994411;28;20022;-80
2023/02/18 05:43:04;;;;;;;79.53;54.63;;;;;;;5.88;52.86;100253.41;4992982;28;20025;-80
2023/02/18 05:45:30;;;;;;;93.47;60.03;;;;;;;5.92;52.73;100236.47;4993044;28;20045;-80
2023/02/18 05:47:55;;;;;;;90.33;57.67;;;;;;;5.12;52.49;100103.56;4993822;28;20026;-80
2023/02/18 05:50:21;;;;;;;76.77;51.77;;;;;;;5.63;52.69;100195.22;4993312;28;20057;-80
2023/02/18 05:52:46;;;;;;;67.88;44.33;;;;;;;5.71;52.77;100203.25;4993965;28;20393;-80
2023/02/18 05:55:11;;;;;;;60.10;37.83;;;;;;;5.98;52.41;100225.50;4994029;28;20041;-80
2023/02/18 05:57:37;;;;;;;61.15;38.55;;;;;;;6.14;52.64;100252.06;4994190;28;20411;-80
2023/02/18 06:00:04;;;;;;;79.17;49.60;;;;;;;6.28;52.76;100254.31;4993983;28;20393;-80
2023/02/18 06:02:29;;;;;;;86.03;54.90;;;;;;;5.76;52.40;100181.91;4993746;28;20117;-80
2023/02/18 06:04:55;;;;;;;88.50;55.63;;;;;;;5.85;52.22;100190.75;4993818;28;20113;-80
2023/02/18 06:07:20;;;;;;;81.67;53.17;;;;;;;6.37;52.29;100250.06;4992697;28;20032;-80
2023/02/18 06:09:46;;;;;;;78.45;51.90;;;;;;;5.55;52.21;100124.31;4992479;28;20503;-79
2023/02/18 06:12:11;;;;;;;74.68;48.33;;;;;;;6.29;52.14;100240.22;4993893;28;20034;-80
2023/02/18 06:14:40;;;;;;;75.43;50.67;;;;;;;6.15;52.19;100197.81;4993950;28;20026;-80
2023/02/18 06:17:07;;;;;;;83.50;51.70;;;;;;;6.60;51.87;100248.03;4993589;28;20080;-80
2023/02/18 06:19:33;;;;;;;77.43;50.38;;;;;;;6.17;51.81;100170.50;4993964;28;20054;-80
2023/02/18 06:21:59;;;;;;;76.47;52.03;;;;;;;6.67;52.29;100251.78;4993605;28;20078;-80
2023/02/18 06:24:25;;;;;;;79.65;51.60;;;;;;;6.31;51.98;100209.47;4992440;28;20030;-80
2023/02/18 06:26:50;;;;;;;73.85;48.10;;;;;;;6.55;52.34;100230.06;4993755;28;20038;-80
2023/02/18 06:29:16;;;;;;;70.82;45.38;;;;;;;6.40;52.15;100180.75;4993603;28;20106;-80
2023/02/18 06:31:41;;;;;;;69.43;47.28;;;;;;;6.66;52.03;100218.63;4993493;28;20053;-80
2023/02/18 06:34:06;;;;;;;69.20;45.40;;;;;;;6.29;51.62;100160.72;4993532;28;20097;-80
2023/02/18 06:36:32;;;;;;;69.68;47.08;;;;;;;6.70;51.50;100201.69;4993361;28;20040;-80
2023/02/18 06:38:58;;;;;;;70.03;47.13;;;;;;;6.95;51.78;100243.13;4993300;28;20097;-80
2023/02/18 06:41:24;;;;;;;75.57;49.53;;;;;;;7.11;51.41;100232.06;4993278;28;20177;-80
2023/02/18 06:43:50;;;;;;;74.53;49.33;;;;;;;6.66;51.78;100151.25;4993247;28;20030;-80
2023/02/18 06:46:15;;;;;;;73.80;48.33;;;;;;;7.00;52.06;100179.72;4993191;28;20023;-80
2023/02/18 06:48:41;;;;;;;74.00;49.80;;;;;;;6.69;51.77;100121.31;4991918;28;20512;-80
2023/02/18 06:51:06;;;;;;;71.93;48.92;;;;;;;7.01;51.85;100157.75;4991857;28;20026;-80
2023/02/18 06:53:32;;;;;;;70.05;47.00;;;;;;;7.06;51.81;100166.03;4992967;28;20105;-80
2023/02/18 06:55:57;;;;;;;76.32;49.50;;;;;;;6.80;51.33;100131.66;4993159;28;20034;-80
2023/02/18 06:58:22;;;;;;;63.45;45.05;;;;;;;7.48;51.50;100205.94;4992806;28;20030;-80
2023/02/18 07:00:48;;;;;;;70.65;49.97;;;;;;;7.21;51.48;100134.91;4992555;28;20495;-80
2023/02/18 07:03:14;;;;;;;66.35;44.30;;;;;;;7.25;51.45;100150.22;4992844;28;20032;-80
2023/02/18 07:05:41;;;;;;;65.03;42.38;;;;;;;7.94;51.02;100234.00;4992750;28;20033;-80
2023/02/18 07:08:06;;;;;;;66.80;44.28;;;;;;;7.48;51.44;100132.34;4992806;28;20030;-79
2023/02/18 07:10:32;;;;;;;70.03;44.80;;;;;;;8.11;51.06;100221.88;4991426;28;20041;-80
2023/02/18 07:12:57;;;;;;;68.80;42.15;;;;;;;7.93;51.12;100178.94;4992772;28;20023;-80
2023/02/18 07:15:23;;;;;;;71.88;45.55;;;;;;;7.59;50.83;100124.28;4992838;28;20026;-80
2023/02/18 07:17:51;;;;;;;54.65;40.63;;;;;;;7.84;51.21;100140.38;4992729;28;20483;-80
2023/02/18 07:20:18;;;;;;;59.22;40.42;;;;;;;8.38;51.05;100205.34;4992610;28;20030;-80
2023/02/18 07:22:44;;;;;;;60.30;38.53;;;;;;;8.25;50.76;100166.19;4992453;28;20486;-80
2023/02/18 07:25:09;;;;;;;60.50;37.42;;;;;;;8.18;51.16;100133.56;4992474;28;20018;-80
2023/02/18 07:27:34;;;;;;;53.60;37.58;;;;;;;7.36;50.70;99983.75;4992298;28;20030;-81
2023/02/18 07:30:00;;;;;;;52.03;35.40;;;;;;;8.35;51.19;100144.28;4992508;28;20084;-80
2023/02/18 07:32:25;;;;;;;47.70;33.30;;;;;;;8.86;50.51;100185.72;4992305;28;20061;-80
2023/02/18 07:34:51;;;;;;;45.25;31.58;;;;;;;8.97;51.03;100188.16;4990939;28;20088;-80
2023/02/18 07:37:18;;;;;;;50.40;32.42;;;;;;;8.23;50.47;100060.28;4992144;28;20110;-80
2023/02/18 07:39:44;;;;;;;33.88;25.83;;;;;;;8.68;50.48;100105.94;4990875;28;20026;-80
2023/02/18 07:42:11;;;;;;;32.75;26.17;;;;;;;8.72;50.41;100113.38;4990752;28;20027;-81
2023/02/18 07:44:37;;;;;;;37.15;25.65;;;;;;;8.70;50.37;100091.63;4991887;28;20113;-80
2023/02/18 07:47:04;;;;;;;35.15;25.48;;;;;;;8.89;50.31;100106.44;4992441;28;20109;-80
2023/02/18 07:49:29;;;;;;;34.30;25.33;;;;;;;9.19;50.40;100152.59;4992066;28;20030;-80
2023/02/18 07:51:55;;;;;;;31.92;23.98;;;;;;;9.00;50.22;100100.13;4990616;28;20080;-81
2023/02/18 07:54:20;;;;;;;35.70;24.25;;;;;;;9.56;50.36;100171.59;4990700;28;20488;-80
2023/02/18 07:56:46;;;;;;;31.67;22.70;;;;;;;8.66;50.35;100013.94;4991928;28;20041;-80
2023/02/18 07:59:12;;;;;;;31.10;21.98;;;;;;;9.23;50.29;100107.34;4991794;28;20543;-81
2023/02/18 08:01:38;;;;;;;29.13;20.83;;;;;;;9.56;50.43;100142.63;4991984;28;20026;-80
2023/02/18 08:04:04;;;;;;;24.17;20.08;;;;;;;9.23;50.40;100059.91;4992093;28;20534;-81
2023/02/18 08:06:41;;;;;;;25.67;18.67;;;;;;;9.38;50.83;100068.06;4992061;28;20149;-80
2023/02/18 08:09:07;;;;;;;26.67;20.50;;;;;;;10.09;50.17;100169.75;4992033;28;20023;-81
2023/02/18 08:11:33;;;;;;;23.48;19.58;;;;;;;10.19;50.60;100158.06;4992123;28;20030;-81
2023/02/18 08:13:59;;;;;;;25.45;19.77;;;;;;;9.99;50.22;100103.91;4997065;28;20098;-80
2023/02/18 08:16:25;;;;;;;24.85;20.23;;;;;;;9.63;50.40;100039.16;4997742;28;20026;-80
2023/02/18 08:18:51;;;;;;;30.10;23.38;;;;;;;10.41;50.92;100150.59;4994852;28;20038;-80
2023/02/18 08:21:18;;;;;;;30.13;21.52;;;;;;;9.94;50.54;100066.66;4995813;28;20022;-80
2023/02/18 08:23:44;;;;;;;25.05;20.10;;;;;;;10.27;49.91;100141.47;4995673;28;20033;-80
2023/02/18 08:26:11;;;;;;;30.05;22.63;;;;;;;10.35;50.60;100107.16;4995647;28;20026;-80
2023/02/18 08:28:36;;;;;;;34.75;24.08;;;;;;;10.03;50.58;100049.84;4995622;28;20054;-78
2023/02/18 08:31:02;;;;;;;26.35;20.63;;;;;;;10.71;50.33;100138.56;4995792;28;20501;-80
2023/02/18 08:33:28;;;;;;;31.65;22.92;;;;;;;10.83;50.41;100131.97;4995756;28;20026;-80
2023/02/18 08:35:54;;;;;;;23.45;17.73;;;;;;;10.54;50.07;100061.16;4995699;28;20026;-80
2023/02/18 08:38:21;;;;;;;24.58;17.42;;;;;;;10.60;49.76;100063.16;4994439;28;20046;-80
2023/02/18 08:40:46;;;;;;;24.40;17.77;;;;;;;11.25;49.58;100131.81;4994334;28;20085;-80
2023/02/18 08:43:13;;;;;;;25.02;17.98;;;;;;;11.11;49.37;100087.53;4994301;28;20034;-79
2023/02/18 08:45:38;;;;;;;15.43;13.13;;;;;;;11.53;49.35;100103.16;4995528;28;20034;-80
2023/02/18 08:48:06;;;;;;;19.20;13.98;;;;;;;11.07;48.87;100018.34;4994435;28;20029;-80
2023/02/18 08:50:31;;;;;;;18.40;13.02;;;;;;;11.25;48.73;100031.34;4995606;28;20105;-80
2023/02/18 08:53:00;;;;;;;15.65;12.88;;;;;;;11.77;48.51;100112.81;4995495;28;20125;-80
2023/02/18 08:55:26;;;;;;;16.70;14.30;;;;;;;11.60;48.10;100063.63;4995429;28;20092;-80
2023/02/18 08:57:51;;;;;;;19.90;17.02;;;;;;;11.83;48.28;100055.75;4993870;28;20026;-80
2023/02/18 09:00:18;;;;;;;19.20;14.63;;;;;;;12.23;47.77;100111.13;4995068;28;20456;-80
2023/02/18 09:02:43;;;;;;;16.63;13.60;;;;;;;12.38;47.44;100125.28;4995163;28;20081;-80
2023/02/18 09:05:09;;;;;;;17.20;13.52;;;;;;;12.42;47.40;100128.41;4995132;28;20030;-80
2023/02/18 09:07:36;;;;;;;14.55;12.57;;;;;;;12.32;46.84;100103.97;4994884;28;20092;-80
2023/02/18 09:10:02;;;;;;;17.10;13.15;;;;;;;11.77;46.38;100023.72;4993560;28;20121;-80
2023/02/18 09:12:27;;;;;;;16.27;12.80;;;;;;;12.12;46.43;100078.94;4994815;28;20106;-80
2023/02/18 09:14:53;;;;;;;16.15;11.95;;;;;;;12.27;46.42;100091.25;4994774;28;20073;-80
2023/02/18 09:17:19;;;;;;;17.33;12.82;;;;;;;12.47;46.19;100123.41;4994413;28;20030;-80
2023/02/18 09:19:45;;;;;;;17.48;12.88;;;;;;;11.72;46.50;99990.81;4993271;28;20065;-80
2023/02/18 09:22:10;;;;;;;16.17;12.32;;;;;;;12.23;46.08;100078.56;4994554;28;20085;-80
2023/02/18 09:24:41;;;;;;;17.55;11.82;;;;;;;12.63;45.76;100141.84;4993233;28;20030;-80
2023/02/18 09:27:07;;;;;;;19.42;15.38;;;;;;;12.67;45.85;100124.59;4994664;28;20505;-80
2023/02/18 09:29:33;;;;;;;20.08;14.85;;;;;;;12.57;45.28;100102.78;4994470;28;20411;-80
2023/02/18 09:32:02;;;;;;;20.98;15.98;;;;;;;12.62;45.63;100099.63;4994572;28;20022;-80
2023/02/18 09:34:28;;;;;;;16.67;13.50;;;;;;;12.22;45.14;100029.25;4993429;28;20546;-80
2023/02/18 09:36:53;;;;;;;19.75;14.57;;;;;;;12.78;45.22;100119.88;4994395;28;20026;-80
2023/02/18 09:39:19;;;;;;;17.60;13.88;;;;;;;12.74;45.06;100090.28;4994298;28;20026;-80
2023/02/18 09:41:56;;;;;;;28.80;22.55;;;;;;;12.95;44.46;100108.97;4992986;28;20021;-80
2023/02/18 09:44:27;;;;;;;16.58;13.93;;;;;;;13.05;43.54;100111.38;4994216;28;20022;-80
2023/02/18 09:47:09;;;;;;;11.77;9.68;;;;;;;12.59;42.96;100021.31;4994218;28;20555;-80
2023/02/18 09:49:39;;;;;;;31.85;23.10;;;;;;;13.29;42.25;100100.53;4994338;28;20027;-80
2023/02/18 09:52:11;;;;;;;14.43;8.13;;;;;;;12.99;41.46;100032.56;4992920;28;20022;-80
2023/02/18 09:54:37;;;;;;;12.15;9.60;;;;;;;13.53;40.92;100117.22;4992972;28;20053;-80
2023/02/18 09:57:06;;;;;;;11.40;8.45;;;;;;;13.66;40.55;100104.97;4994078;28;20030;-80
2023/02/18 09:59:32;;;;;;;9.85;8.32;;;;;;;13.33;39.46;100027.56;4992560;28;20014;-80
2023/02/18 10:01:59;;;;;;;10.73;7.50;;;;;;;13.96;38.88;100095.13;4992685;28;20154;-81
2023/02/18 10:04:39;;;;;;;9.77;7.43;;;;;;;13.51;37.56;100002.53;4993955;28;20104;-80
2023/02/18 10:07:05;;;;;;;9.90;6.35;;;;;;;13.84;37.02;100070.06;4993901;28;20602;-80
2023/02/18 10:09:35;;;;;;;9.25;5.85;;;;;;;14.29;36.78;100094.69;4993717;28;20034;-80
2023/02/18 10:12:14;;;;;;;9.65;5.32;;;;;;;14.38;35.36;100087.44;4992303;28;20034;-80
2023/02/18 10:14:40;;;;;;;7.25;5.53;;;;;;;13.62;36.04;99962.25;4992180;28;20023;-79
2023/02/18 10:17:06;;;;;;;6.68;5.43;;;;;;;14.35;35.68;100066.56;4993737;28;20030;-80
2023/02/18 10:19:36;;;;;;;9.35;6.13;;;;;;;14.56;35.42;100078.03;4993753;28;20026;-79
2023/02/18 10:22:04;;;;;;;9.68;6.95;;;;;;;14.45;35.39;100056.47;4993558;28;20101;-80
2023/02/18 10:24:36;;;;;;;13.45;9.57;;;;;;;14.47;35.16;100055.25;4993685;28;20458;-80
2023/02/18 10:27:04;;;;;;;11.63;7.50;;;;;;;14.31;35.24;100024.44;4992297;28;20125;-79
2023/02/18 10:29:31;;;;;;;10.35;6.15;;;;;;;14.29;35.17;99999.91;4993418;28;20182;-80
2023/02/18 10:32:26;;;;;;;12.93;6.90;;;;;;;14.67;35.17;100055.44;4993321;28;20030;-80
2023/02/18 10:35:00;;;;;;;8.40;5.97;;;;;;;14.69;35.15;100048.09;4992453;28;20034;-80
2023/02/18 10:37:53;;;;;;;9.77;6.25;;;;;;;14.85;34.26;100047.81;4993491;28;20202;-80
2023/02/18 10:40:50;;;;;;;8.43;6.22;;;;;;;15.03;34.52;100044.69;4992025;28;20026;-80
2023/02/18 10:43:23;;;;;;;8.27;5.70;;;;;;;14.72;34.24;99964.47;4991903;28;20108;-80
2023/02/18 10:45:51;;;;;;;7.78;6.18;;;;;;;15.16;34.18;100028.81;4993198;28;20025;-80
2023/02/18 10:48:17;;;;;;;8.48;6.25;;;;;;;15.15;34.54;100021.84;4993003;28;20026;-80
2023/02/18 10:50:44;;;;;;;7.38;5.07;;;;;;;14.89;33.93;100000.41;4993029;28;20084;-79
2023/02/18 10:53:24;;;;;;;10.55;6.30;;;;;;;15.24;33.67;100026.00;4993134;28;20019;-81
2023/02/18 10:55:53;;;;;;;7.78;5.75;;;;;;;14.87;33.74;99950.09;4991650;28;20113;-80
2023/02/18 10:58:35;;;;;;;7.00;5.43;;;;;;;15.36;33.63;100017.44;4993002;28;20101;-80
2023/02/18 11:01:07;;;;;;;7.97;5.65;;;;;;;15.32;33.87;100011.69;4993019;28;20026;-80
2023/02/18 11:03:43;;;;;;;7.72;5.55;;;;;;;15.33;33.68;100001.88;4991259;28;20018;-80
2023/02/18 11:06:32;;;;;;;9.30;6.25;;;;;;;15.08;33.10;99940.38;4991415;28;20034;-79
2023/02/18 11:08:59;;;;;;;9.93;6.43;;;;;;;15.07;33.37;99906.84;4993004;28;20542;-80
2023/02/18 11:11:33;;;;;;;10.77;6.18;;;;;;;15.66;32.81;99965.63;4992598;28;20076;-80
2023/02/18 11:14:01;;;;;;;7.20;5.05;;;;;;;15.85;32.46;99956.03;4992729;28;20026;-81
2023/02/18 11:17:06;;;;;;;8.23;4.68;;;;;;;15.93;31.46;99936.41;4992484;28;20114;-80
2023/02/18 11:19:36;;;;;;;8.40;5.35;;;;;;;16.47;31.19;99986.88;4980805;28;20499;-80
2023/02/18 11:22:17;;;;;;;5.68;4.70;;;;;;;16.60;30.70;99983.38;4992620;28;20046;-80
2023/02/18 11:24:47;;;;;;;5.68;4.18;;;;;;;16.01;30.95;99878.44;4992555;28;20026;-80